sensor_id;sensor_type;location;lat;lon;timestamp;P1;durP1;ratioP1;P2;durP2;ratioP2
72060;SDS011;59925;52.136;5.420;2024-03-08T00:00:34;25.50;;;11.48;;
72060;SDS011;59925;52.136;5.420;2024-03-08T00:03:01;27.08;;;11.48;;
72060;SDS011;59925;52.136;5.420;2024-03-08T00:05:28;27.15;;;11.90;;
72060;SDS011;59925;52.136;5.420;2024-03-08T00:07:55;24.25;;;11.40;;
72060;SDS011;59925;52.136;5.420;2024-03-08T00:10:22;30.07;;;12.17;;
72060;SDS011;59925;52.136;5.420;2024-03-08T00:12:53;26.10;;;11.98;;
72060;SDS011;59925;52.136;5.420;2024-03-08T00:15:20;25.25;;;12.27;;
72060;SDS011;59925;52.136;5.420;2024-03-08T00:17:49;26.30;;;11.40;;
72060;SDS011;59925;52.136;5.420;2024-03-08T00:20:16;25.98;;;11.40;;
72060;SDS011;59925;52.136;5.420;2024-03-08T00:22:45;25.90;;;11.37;;
72060;SDS011;59925;52.136;5.420;2024-03-08T00:25:12;27.58;;;12.48;;
72060;SDS011;59925;52.136;5.420;2024-03-08T00:27:39;26.52;;;11.70;;
72060;SDS011;59925;52.136;5.420;2024-03-08T00:30:06;26.50;;;11.30;;
72060;SDS011;59925;52.136;5.420;2024-03-08T00:32:34;25.42;;;11.45;;
72060;SDS011;59925;52.136;5.420;2024-03-08T00:35:02;26.97;;;11.30;;
72060;SDS011;59925;52.136;5.420;2024-03-08T00:37:29;22.27;;;11.18;;
72060;SDS011;59925;52.136;5.420;2024-03-08T00:39:55;25.17;;;11.38;;
72060;SDS011;59925;52.136;5.420;2024-03-08T00:42:22;22.73;;;11.50;;
72060;SDS011;59925;52.136;5.420;2024-03-08T00:44:48;23.48;;;11.00;;
72060;SDS011;59925;52.136;5.420;2024-03-08T00:47:18;28.50;;;11.80;;
72060;SDS011;59925;52.136;5.420;2024-03-08T00:49:45;25.40;;;11.38;;
72060;SDS011;59925;52.136;5.420;2024-03-08T00:52:13;25.65;;;11.00;;
72060;SDS011;59925;52.136;5.420;2024-03-08T00:54:39;33.38;;;12.57;;
72060;SDS011;59925;52.136;5.420;2024-03-08T00:57:06;28.52;;;12.15;;
72060;SDS011;59925;52.136;5.420;2024-03-08T00:59:33;25.03;;;11.83;;
72060;SDS011;59925;52.136;5.420;2024-03-08T01:02:02;20.75;;;10.25;;
72060;SDS011;59925;52.136;5.420;2024-03-08T01:04:28;24.80;;;11.00;;
72060;SDS011;59925;52.136;5.420;2024-03-08T01:06:56;22.42;;;11.20;;
72060;SDS011;59925;52.136;5.420;2024-03-08T01:09:23;23.30;;;10.95;;
72060;SDS011;59925;52.136;5.420;2024-03-08T01:11:53;26.10;;;11.70;;
72060;SDS011;59925;52.136;5.420;2024-03-08T01:14:21;27.75;;;12.27;;
72060;SDS011;59925;52.136;5.420;2024-03-08T01:16:57;27.40;;;11.77;;
72060;SDS011;59925;52.136;5.420;2024-03-08T01:19:24;27.10;;;11.13;;
72060;SDS011;59925;52.136;5.420;2024-03-08T01:21:51;27.55;;;10.80;;
72060;SDS011;59925;52.136;5.420;2024-03-08T01:24:17;23.30;;;11.40;;
72060;SDS011;59925;52.136;5.420;2024-03-08T01:26:44;26.17;;;12.00;;
72060;SDS011;59925;52.136;5.420;2024-03-08T01:29:11;22.35;;;11.20;;
72060;SDS011;59925;52.136;5.420;2024-03-08T01:31:37;27.17;;;12.07;;
72060;SDS011;59925;52.136;5.420;2024-03-08T01:34:04;23.00;;;10.88;;
72060;SDS011;59925;52.136;5.420;2024-03-08T01:36:31;25.70;;;12.03;;
72060;SDS011;59925;52.136;5.420;2024-03-08T01:38:57;25.83;;;11.32;;
72060;SDS011;59925;52.136;5.420;2024-03-08T01:41:24;21.98;;;11.20;;
72060;SDS011;59925;52.136;5.420;2024-03-08T01:43:50;24.20;;;11.43;;
72060;SDS011;59925;52.136;5.420;2024-03-08T01:46:19;25.67;;;11.15;;
72060;SDS011;59925;52.136;5.420;2024-03-08T01:48:50;25.03;;;11.33;;
72060;SDS011;59925;52.136;5.420;2024-03-08T01:51:18;25.73;;;12.02;;
72060;SDS011;59925;52.136;5.420;2024-03-08T01:53:46;28.25;;;11.93;;
72060;SDS011;59925;52.136;5.420;2024-03-08T01:56:14;26.83;;;11.82;;
72060;SDS011;59925;52.136;5.420;2024-03-08T01:58:41;26.42;;;12.40;;
72060;SDS011;59925;52.136;5.420;2024-03-08T02:01:13;24.67;;;12.10;;
72060;SDS011;59925;52.136;5.420;2024-03-08T02:03:43;22.75;;;12.05;;
72060;SDS011;59925;52.136;5.420;2024-03-08T02:06:11;25.52;;;12.52;;
72060;SDS011;59925;52.136;5.420;2024-03-08T02:08:41;24.30;;;11.75;;
72060;SDS011;59925;52.136;5.420;2024-03-08T02:11:10;23.35;;;10.70;;
72060;SDS011;59925;52.136;5.420;2024-03-08T02:13:37;27.37;;;11.87;;
72060;SDS011;59925;52.136;5.420;2024-03-08T02:16:04;22.42;;;11.48;;
72060;SDS011;59925;52.136;5.420;2024-03-08T02:18:34;22.42;;;11.02;;
72060;SDS011;59925;52.136;5.420;2024-03-08T02:21:01;24.60;;;11.85;;
72060;SDS011;59925;52.136;5.420;2024-03-08T02:23:29;24.98;;;11.27;;
72060;SDS011;59925;52.136;5.420;2024-03-08T02:25:56;26.13;;;11.73;;
72060;SDS011;59925;52.136;5.420;2024-03-08T02:28:23;26.45;;;11.77;;
72060;SDS011;59925;52.136;5.420;2024-03-08T02:30:51;26.55;;;12.07;;
72060;SDS011;59925;52.136;5.420;2024-03-08T02:33:22;22.63;;;11.65;;
72060;SDS011;59925;52.136;5.420;2024-03-08T02:35:50;30.17;;;11.75;;
72060;SDS011;59925;52.136;5.420;2024-03-08T02:38:17;26.10;;;12.00;;
72060;SDS011;59925;52.136;5.420;2024-03-08T02:40:45;27.25;;;11.40;;
72060;SDS011;59925;52.136;5.420;2024-03-08T02:43:13;26.42;;;11.48;;
72060;SDS011;59925;52.136;5.420;2024-03-08T02:45:41;24.70;;;12.25;;
72060;SDS011;59925;52.136;5.420;2024-03-08T02:48:08;23.98;;;11.23;;
72060;SDS011;59925;52.136;5.420;2024-03-08T02:50:35;23.27;;;11.57;;
72060;SDS011;59925;52.136;5.420;2024-03-08T02:53:03;24.58;;;11.93;;
72060;SDS011;59925;52.136;5.420;2024-03-08T02:55:30;26.48;;;11.10;;
72060;SDS011;59925;52.136;5.420;2024-03-08T02:57:56;23.67;;;10.90;;
72060;SDS011;59925;52.136;5.420;2024-03-08T03:00:23;25.67;;;11.68;;
72060;SDS011;59925;52.136;5.420;2024-03-08T03:02:50;21.83;;;10.80;;
72060;SDS011;59925;52.136;5.420;2024-03-08T03:05:20;26.90;;;11.75;;
72060;SDS011;59925;52.136;5.420;2024-03-08T03:07:47;23.40;;;11.48;;
72060;SDS011;59925;52.136;5.420;2024-03-08T03:10:16;23.63;;;12.40;;
72060;SDS011;59925;52.136;5.420;2024-03-08T03:12:44;27.35;;;11.93;;
72060;SDS011;59925;52.136;5.420;2024-03-08T03:15:12;29.80;;;13.03;;
72060;SDS011;59925;52.136;5.420;2024-03-08T03:17:40;27.30;;;12.20;;
72060;SDS011;59925;52.136;5.420;2024-03-08T03:20:07;23.00;;;11.93;;
72060;SDS011;59925;52.136;5.420;2024-03-08T03:22:40;26.02;;;12.57;;
72060;SDS011;59925;52.136;5.420;2024-03-08T03:25:07;22.88;;;12.18;;
72060;SDS011;59925;52.136;5.420;2024-03-08T03:27:35;27.80;;;12.10;;
72060;SDS011;59925;52.136;5.420;2024-03-08T03:30:03;25.42;;;11.38;;
72060;SDS011;59925;52.136;5.420;2024-03-08T03:32:48;25.58;;;12.23;;
72060;SDS011;59925;52.136;5.420;2024-03-08T03:35:19;22.48;;;11.85;;
72060;SDS011;59925;52.136;5.420;2024-03-08T03:37:47;25.00;;;12.48;;
72060;SDS011;59925;52.136;5.420;2024-03-08T03:40:34;22.50;;;10.97;;
72060;SDS011;59925;52.136;5.420;2024-03-08T03:43:06;25.77;;;11.57;;
72060;SDS011;59925;52.136;5.420;2024-03-08T03:45:33;23.98;;;11.45;;
72060;SDS011;59925;52.136;5.420;2024-03-08T03:48:08;24.15;;;12.15;;
72060;SDS011;59925;52.136;5.420;2024-03-08T03:50:37;22.95;;;11.15;;
72060;SDS011;59925;52.136;5.420;2024-03-08T03:53:04;24.63;;;12.10;;
72060;SDS011;59925;52.136;5.420;2024-03-08T03:55:34;25.50;;;11.77;;
72060;SDS011;59925;52.136;5.420;2024-03-08T03:58:03;23.10;;;11.55;;
72060;SDS011;59925;52.136;5.420;2024-03-08T04:00:29;29.25;;;12.75;;
72060;SDS011;59925;52.136;5.420;2024-03-08T04:02:56;26.17;;;12.77;;
72060;SDS011;59925;52.136;5.420;2024-03-08T04:05:26;27.50;;;12.10;;
72060;SDS011;59925;52.136;5.420;2024-03-08T04:07:52;25.40;;;12.50;;
72060;SDS011;59925;52.136;5.420;2024-03-08T04:10:19;26.75;;;11.65;;
72060;SDS011;59925;52.136;5.420;2024-03-08T04:12:46;24.42;;;12.27;;
72060;SDS011;59925;52.136;5.420;2024-03-08T04:15:13;26.30;;;11.43;;
72060;SDS011;59925;52.136;5.420;2024-03-08T04:17:40;23.87;;;12.17;;
72060;SDS011;59925;52.136;5.420;2024-03-08T04:20:07;25.23;;;12.48;;
72060;SDS011;59925;52.136;5.420;2024-03-08T04:22:37;25.65;;;12.55;;
72060;SDS011;59925;52.136;5.420;2024-03-08T04:25:04;25.85;;;12.82;;
72060;SDS011;59925;52.136;5.420;2024-03-08T04:27:32;26.80;;;11.65;;
72060;SDS011;59925;52.136;5.420;2024-03-08T04:30:01;25.43;;;12.77;;
72060;SDS011;59925;52.136;5.420;2024-03-08T04:32:28;23.42;;;11.20;;
72060;SDS011;59925;52.136;5.420;2024-03-08T04:34:59;25.15;;;12.55;;
72060;SDS011;59925;52.136;5.420;2024-03-08T04:37:27;23.85;;;12.10;;
72060;SDS011;59925;52.136;5.420;2024-03-08T04:39:55;23.05;;;11.15;;
72060;SDS011;59925;52.136;5.420;2024-03-08T04:42:22;25.03;;;12.13;;
72060;SDS011;59925;52.136;5.420;2024-03-08T04:44:49;24.48;;;11.77;;
72060;SDS011;59925;52.136;5.420;2024-03-08T04:47:15;26.20;;;11.70;;
72060;SDS011;59925;52.136;5.420;2024-03-08T04:49:44;25.90;;;11.45;;
72060;SDS011;59925;52.136;5.420;2024-03-08T04:52:10;26.33;;;12.65;;
72060;SDS011;59925;52.136;5.420;2024-03-08T04:54:38;22.57;;;12.10;;
72060;SDS011;59925;52.136;5.420;2024-03-08T04:57:05;27.05;;;12.45;;
72060;SDS011;59925;52.136;5.420;2024-03-08T04:59:34;27.48;;;12.85;;
72060;SDS011;59925;52.136;5.420;2024-03-08T05:02:02;24.83;;;12.10;;
72060;SDS011;59925;52.136;5.420;2024-03-08T05:04:29;24.80;;;12.95;;
72060;SDS011;59925;52.136;5.420;2024-03-08T05:06:56;24.83;;;12.10;;
72060;SDS011;59925;52.136;5.420;2024-03-08T05:09:22;24.92;;;12.00;;
72060;SDS011;59925;52.136;5.420;2024-03-08T05:11:50;26.60;;;12.70;;
72060;SDS011;59925;52.136;5.420;2024-03-08T05:14:16;26.85;;;12.68;;
72060;SDS011;59925;52.136;5.420;2024-03-08T05:16:44;23.13;;;12.63;;
72060;SDS011;59925;52.136;5.420;2024-03-08T05:19:15;23.20;;;12.40;;
72060;SDS011;59925;52.136;5.420;2024-03-08T05:21:45;25.25;;;12.55;;
72060;SDS011;59925;52.136;5.420;2024-03-08T05:24:13;24.45;;;11.68;;
72060;SDS011;59925;52.136;5.420;2024-03-08T05:26:41;24.88;;;12.65;;
72060;SDS011;59925;52.136;5.420;2024-03-08T05:29:08;24.25;;;12.82;;
72060;SDS011;59925;52.136;5.420;2024-03-08T05:31:53;23.10;;;12.20;;
72060;SDS011;59925;52.136;5.420;2024-03-08T05:34:20;26.98;;;13.13;;
72060;SDS011;59925;52.136;5.420;2024-03-08T05:36:48;26.25;;;12.35;;
72060;SDS011;59925;52.136;5.420;2024-03-08T05:39:18;24.00;;;11.80;;
72060;SDS011;59925;52.136;5.420;2024-03-08T05:41:48;25.27;;;12.15;;
72060;SDS011;59925;52.136;5.420;2024-03-08T05:44:15;25.37;;;12.60;;
72060;SDS011;59925;52.136;5.420;2024-03-08T05:46:44;23.23;;;11.38;;
72060;SDS011;59925;52.136;5.420;2024-03-08T05:49:12;25.23;;;12.38;;
72060;SDS011;59925;52.136;5.420;2024-03-08T05:51:40;28.77;;;12.20;;
72060;SDS011;59925;52.136;5.420;2024-03-08T05:54:10;23.67;;;13.07;;
72060;SDS011;59925;52.136;5.420;2024-03-08T05:56:41;27.37;;;13.03;;
72060;SDS011;59925;52.136;5.420;2024-03-08T05:59:10;26.75;;;12.45;;
72060;SDS011;59925;52.136;5.420;2024-03-08T06:01:37;26.50;;;12.00;;
72060;SDS011;59925;52.136;5.420;2024-03-08T06:04:04;27.40;;;13.27;;
72060;SDS011;59925;52.136;5.420;2024-03-08T06:06:30;24.50;;;12.68;;
72060;SDS011;59925;52.136;5.420;2024-03-08T06:08:58;29.33;;;12.87;;
72060;SDS011;59925;52.136;5.420;2024-03-08T06:11:25;28.02;;;13.15;;
72060;SDS011;59925;52.136;5.420;2024-03-08T06:13:57;29.63;;;12.93;;
72060;SDS011;59925;52.136;5.420;2024-03-08T06:16:26;21.13;;;11.93;;
72060;SDS011;59925;52.136;5.420;2024-03-08T06:18:56;26.05;;;14.00;;
72060;SDS011;59925;52.136;5.420;2024-03-08T06:21:24;26.77;;;13.23;;
72060;SDS011;59925;52.136;5.420;2024-03-08T06:23:53;27.60;;;13.75;;
72060;SDS011;59925;52.136;5.420;2024-03-08T06:26:24;25.13;;;12.57;;
72060;SDS011;59925;52.136;5.420;2024-03-08T06:28:55;28.33;;;13.07;;
72060;SDS011;59925;52.136;5.420;2024-03-08T06:31:22;24.35;;;12.75;;
72060;SDS011;59925;52.136;5.420;2024-03-08T06:33:49;24.67;;;12.77;;
72060;SDS011;59925;52.136;5.420;2024-03-08T06:36:16;28.02;;;14.13;;
72060;SDS011;59925;52.136;5.420;2024-03-08T06:38:48;24.00;;;12.90;;
72060;SDS011;59925;52.136;5.420;2024-03-08T06:41:15;26.65;;;13.10;;
72060;SDS011;59925;52.136;5.420;2024-03-08T06:43:42;24.10;;;12.93;;
72060;SDS011;59925;52.136;5.420;2024-03-08T06:46:10;29.73;;;13.53;;
72060;SDS011;59925;52.136;5.420;2024-03-08T06:48:39;26.25;;;13.90;;
72060;SDS011;59925;52.136;5.420;2024-03-08T06:51:06;24.85;;;13.05;;
72060;SDS011;59925;52.136;5.420;2024-03-08T06:53:33;27.48;;;13.68;;
72060;SDS011;59925;52.136;5.420;2024-03-08T06:56:05;27.20;;;13.23;;
72060;SDS011;59925;52.136;5.420;2024-03-08T06:58:31;24.47;;;13.60;;
72060;SDS011;59925;52.136;5.420;2024-03-08T07:00:59;28.83;;;13.70;;
72060;SDS011;59925;52.136;5.420;2024-03-08T07:03:27;24.48;;;13.68;;
72060;SDS011;59925;52.136;5.420;2024-03-08T07:05:56;25.45;;;13.10;;
72060;SDS011;59925;52.136;5.420;2024-03-08T07:08:28;27.30;;;13.45;;
72060;SDS011;59925;52.136;5.420;2024-03-08T07:10:57;23.93;;;12.53;;
72060;SDS011;59925;52.136;5.420;2024-03-08T07:13:25;25.95;;;13.10;;
72060;SDS011;59925;52.136;5.420;2024-03-08T07:15:55;28.65;;;13.10;;
72060;SDS011;59925;52.136;5.420;2024-03-08T07:18:22;28.98;;;14.00;;
72060;SDS011;59925;52.136;5.420;2024-03-08T07:20:49;25.52;;;14.48;;
72060;SDS011;59925;52.136;5.420;2024-03-08T07:23:15;24.33;;;13.13;;
72060;SDS011;59925;52.136;5.420;2024-03-08T07:26:02;26.52;;;14.43;;
72060;SDS011;59925;52.136;5.420;2024-03-08T07:28:29;27.30;;;13.27;;
72060;SDS011;59925;52.136;5.420;2024-03-08T07:31:00;28.48;;;13.77;;
72060;SDS011;59925;52.136;5.420;2024-03-08T07:33:39;26.30;;;13.18;;
72060;SDS011;59925;52.136;5.420;2024-03-08T07:36:06;25.60;;;13.53;;
72060;SDS011;59925;52.136;5.420;2024-03-08T07:38:32;24.92;;;13.65;;
72060;SDS011;59925;52.136;5.420;2024-03-08T07:40:59;27.05;;;14.23;;
72060;SDS011;59925;52.136;5.420;2024-03-08T07:43:30;26.55;;;13.73;;
72060;SDS011;59925;52.136;5.420;2024-03-08T07:45:56;28.15;;;14.52;;
72060;SDS011;59925;52.136;5.420;2024-03-08T07:48:23;21.47;;;12.70;;
72060;SDS011;59925;52.136;5.420;2024-03-08T07:50:49;28.58;;;14.43;;
72060;SDS011;59925;52.136;5.420;2024-03-08T07:53:17;26.58;;;14.70;;
72060;SDS011;59925;52.136;5.420;2024-03-08T07:55:43;28.95;;;14.57;;
72060;SDS011;59925;52.136;5.420;2024-03-08T07:58:11;28.92;;;13.65;;
72060;SDS011;59925;52.136;5.420;2024-03-08T08:00:37;28.93;;;14.90;;
72060;SDS011;59925;52.136;5.420;2024-03-08T08:03:04;23.88;;;13.68;;
72060;SDS011;59925;52.136;5.420;2024-03-08T08:05:31;25.90;;;14.07;;
72060;SDS011;59925;52.136;5.420;2024-03-08T08:08:02;25.38;;;14.07;;
72060;SDS011;59925;52.136;5.420;2024-03-08T08:10:32;27.67;;;14.80;;
72060;SDS011;59925;52.136;5.420;2024-03-08T08:12:59;28.27;;;13.43;;
72060;SDS011;59925;52.136;5.420;2024-03-08T08:15:26;24.98;;;14.05;;
72060;SDS011;59925;52.136;5.420;2024-03-08T08:17:54;25.92;;;14.48;;
72060;SDS011;59925;52.136;5.420;2024-03-08T08:20:21;29.13;;;14.18;;
72060;SDS011;59925;52.136;5.420;2024-03-08T08:22:49;26.13;;;14.23;;
72060;SDS011;59925;52.136;5.420;2024-03-08T08:25:16;20.87;;;11.13;;
72060;SDS011;59925;52.136;5.420;2024-03-08T08:27:46;25.70;;;14.25;;
72060;SDS011;59925;52.136;5.420;2024-03-08T08:30:13;27.92;;;14.18;;
72060;SDS011;59925;52.136;5.420;2024-03-08T08:32:40;27.40;;;13.07;;
72060;SDS011;59925;52.136;5.420;2024-03-08T08:35:08;26.30;;;13.48;;
72060;SDS011;59925;52.136;5.420;2024-03-08T08:37:38;24.97;;;13.33;;
72060;SDS011;59925;52.136;5.420;2024-03-08T08:40:05;26.75;;;13.35;;
72060;SDS011;59925;52.136;5.420;2024-03-08T08:42:36;24.83;;;13.65;;
72060;SDS011;59925;52.136;5.420;2024-03-08T08:45:05;23.67;;;13.40;;
72060;SDS011;59925;52.136;5.420;2024-03-08T08:47:42;25.38;;;13.63;;
72060;SDS011;59925;52.136;5.420;2024-03-08T08:50:09;28.33;;;14.83;;
72060;SDS011;59925;52.136;5.420;2024-03-08T08:52:38;23.55;;;12.95;;
72060;SDS011;59925;52.136;5.420;2024-03-08T08:55:06;29.77;;;15.52;;
72060;SDS011;59925;52.136;5.420;2024-03-08T08:57:32;24.65;;;14.43;;
72060;SDS011;59925;52.136;5.420;2024-03-08T08:59:59;24.27;;;14.02;;
72060;SDS011;59925;52.136;5.420;2024-03-08T09:02:26;24.77;;;14.00;;
72060;SDS011;59925;52.136;5.420;2024-03-08T09:04:53;25.35;;;14.05;;
72060;SDS011;59925;52.136;5.420;2024-03-08T09:07:20;22.77;;;13.18;;
72060;SDS011;59925;52.136;5.420;2024-03-08T09:09:47;22.95;;;13.02;;
72060;SDS011;59925;52.136;5.420;2024-03-08T09:12:13;28.88;;;13.93;;
72060;SDS011;59925;52.136;5.420;2024-03-08T09:14:40;27.30;;;14.70;;
72060;SDS011;59925;52.136;5.420;2024-03-08T09:17:07;23.08;;;13.38;;
72060;SDS011;59925;52.136;5.420;2024-03-08T09:19:35;24.48;;;14.00;;
72060;SDS011;59925;52.136;5.420;2024-03-08T09:22:03;27.25;;;13.98;;
72060;SDS011;59925;52.136;5.420;2024-03-08T09:24:30;25.83;;;13.10;;
72060;SDS011;59925;52.136;5.420;2024-03-08T09:26:57;26.40;;;13.60;;
72060;SDS011;59925;52.136;5.420;2024-03-08T09:29:27;21.30;;;13.23;;
72060;SDS011;59925;52.136;5.420;2024-03-08T09:31:54;26.10;;;13.07;;
72060;SDS011;59925;52.136;5.420;2024-03-08T09:34:21;24.48;;;14.05;;
72060;SDS011;59925;52.136;5.420;2024-03-08T09:36:54;20.75;;;11.32;;
72060;SDS011;59925;52.136;5.420;2024-03-08T09:39:20;26.57;;;14.30;;
72060;SDS011;59925;52.136;5.420;2024-03-08T09:41:49;24.88;;;14.38;;
72060;SDS011;59925;52.136;5.420;2024-03-08T09:44:16;24.10;;;12.95;;
72060;SDS011;59925;52.136;5.420;2024-03-08T09:46:42;23.35;;;13.13;;
72060;SDS011;59925;52.136;5.420;2024-03-08T09:49:09;24.98;;;13.32;;
72060;SDS011;59925;52.136;5.420;2024-03-08T09:51:37;24.43;;;13.50;;
72060;SDS011;59925;52.136;5.420;2024-03-08T09:54:06;24.27;;;13.80;;
72060;SDS011;59925;52.136;5.420;2024-03-08T09:56:45;24.20;;;12.57;;
72060;SDS011;59925;52.136;5.420;2024-03-08T09:59:13;25.55;;;13.32;;
72060;SDS011;59925;52.136;5.420;2024-03-08T10:01:49;26.80;;;14.60;;
72060;SDS011;59925;52.136;5.420;2024-03-08T10:04:15;25.27;;;13.03;;
72060;SDS011;59925;52.136;5.420;2024-03-08T10:06:43;23.50;;;13.95;;
72060;SDS011;59925;52.136;5.420;2024-03-08T10:09:13;25.70;;;13.85;;
72060;SDS011;59925;52.136;5.420;2024-03-08T10:11:39;20.50;;;12.00;;
72060;SDS011;59925;52.136;5.420;2024-03-08T10:14:07;24.02;;;12.82;;
72060;SDS011;59925;52.136;5.420;2024-03-08T10:16:35;21.53;;;11.90;;
72060;SDS011;59925;52.136;5.420;2024-03-08T10:19:02;23.48;;;13.02;;
72060;SDS011;59925;52.136;5.420;2024-03-08T10:21:31;26.20;;;13.07;;
72060;SDS011;59925;52.136;5.420;2024-03-08T10:23:59;25.17;;;12.75;;
72060;SDS011;59925;52.136;5.420;2024-03-08T10:26:25;21.42;;;12.18;;
72060;SDS011;59925;52.136;5.420;2024-03-08T10:28:52;27.50;;;13.13;;
72060;SDS011;59925;52.136;5.420;2024-03-08T10:31:19;24.27;;;13.02;;
72060;SDS011;59925;52.136;5.420;2024-03-08T10:33:46;25.30;;;13.38;;
72060;SDS011;59925;52.136;5.420;2024-03-08T10:36:13;22.30;;;12.70;;
72060;SDS011;59925;52.136;5.420;2024-03-08T10:38:41;22.90;;;12.73;;
72060;SDS011;59925;52.136;5.420;2024-03-08T10:41:14;21.03;;;12.10;;
72060;SDS011;59925;52.136;5.420;2024-03-08T10:46:26;19.95;;;12.25;;
72060;SDS011;59925;52.136;5.420;2024-03-08T10:49:17;21.63;;;12.15;;
72060;SDS011;59925;52.136;5.420;2024-03-08T10:51:50;24.35;;;12.05;;
72060;SDS011;59925;52.136;5.420;2024-03-08T10:54:19;22.33;;;12.03;;
72060;SDS011;59925;52.136;5.420;2024-03-08T10:56:47;21.08;;;12.02;;
72060;SDS011;59925;52.136;5.420;2024-03-08T10:59:15;21.20;;;12.77;;
72060;SDS011;59925;52.136;5.420;2024-03-08T11:01:43;23.13;;;13.07;;
72060;SDS011;59925;52.136;5.420;2024-03-08T11:04:10;21.35;;;12.65;;
72060;SDS011;59925;52.136;5.420;2024-03-08T11:09:03;21.27;;;12.60;;
72060;SDS011;59925;52.136;5.420;2024-03-08T11:11:39;21.05;;;11.82;;
72060;SDS011;59925;52.136;5.420;2024-03-08T11:14:42;21.10;;;11.57;;
72060;SDS011;59925;52.136;5.420;2024-03-08T11:17:13;19.13;;;10.48;;
72060;SDS011;59925;52.136;5.420;2024-03-08T11:19:47;18.43;;;11.03;;
72060;SDS011;59925;52.136;5.420;2024-03-08T11:22:21;19.80;;;12.27;;
72060;SDS011;59925;52.136;5.420;2024-03-08T11:25:08;19.83;;;11.80;;
72060;SDS011;59925;52.136;5.420;2024-03-08T11:27:38;18.83;;;11.05;;
72060;SDS011;59925;52.136;5.420;2024-03-08T11:30:05;20.92;;;12.00;;
72060;SDS011;59925;52.136;5.420;2024-03-08T11:32:46;20.17;;;11.73;;
72060;SDS011;59925;52.136;5.420;2024-03-08T11:35:20;19.92;;;11.23;;
72060;SDS011;59925;52.136;5.420;2024-03-08T11:37:49;20.08;;;11.48;;
72060;SDS011;59925;52.136;5.420;2024-03-08T11:40:17;19.35;;;11.40;;
72060;SDS011;59925;52.136;5.420;2024-03-08T11:42:45;18.80;;;11.73;;
72060;SDS011;59925;52.136;5.420;2024-03-08T11:45:18;20.23;;;11.27;;
72060;SDS011;59925;52.136;5.420;2024-03-08T11:47:47;19.15;;;10.95;;
72060;SDS011;59925;52.136;5.420;2024-03-08T11:50:16;16.08;;;10.10;;
72060;SDS011;59925;52.136;5.420;2024-03-08T11:52:45;18.20;;;10.60;;
72060;SDS011;59925;52.136;5.420;2024-03-08T11:55:12;19.73;;;10.82;;
72060;SDS011;59925;52.136;5.420;2024-03-08T11:57:39;17.33;;;9.93;;
72060;SDS011;59925;52.136;5.420;2024-03-08T12:00:15;17.98;;;10.23;;
72060;SDS011;59925;52.136;5.420;2024-03-08T12:03:02;16.38;;;9.90;;
72060;SDS011;59925;52.136;5.420;2024-03-08T12:05:32;15.90;;;9.30;;
72060;SDS011;59925;52.136;5.420;2024-03-08T12:08:00;15.48;;;9.05;;
72060;SDS011;59925;52.136;5.420;2024-03-08T12:10:28;16.90;;;9.27;;
72060;SDS011;59925;52.136;5.420;2024-03-08T12:12:57;18.13;;;9.90;;
72060;SDS011;59925;52.136;5.420;2024-03-08T12:15:30;17.15;;;9.60;;
72060;SDS011;59925;52.136;5.420;2024-03-08T12:18:01;15.40;;;9.57;;
72060;SDS011;59925;52.136;5.420;2024-03-08T12:20:31;15.05;;;9.20;;
72060;SDS011;59925;52.136;5.420;2024-03-08T12:22:59;15.50;;;9.37;;
72060;SDS011;59925;52.136;5.420;2024-03-08T12:25:29;15.73;;;8.90;;
72060;SDS011;59925;52.136;5.420;2024-03-08T12:28:06;14.18;;;9.18;;
72060;SDS011;59925;52.136;5.420;2024-03-08T12:30:45;13.75;;;9.10;;
72060;SDS011;59925;52.136;5.420;2024-03-08T12:33:14;16.33;;;9.40;;
72060;SDS011;59925;52.136;5.420;2024-03-08T12:35:41;15.03;;;9.50;;
72060;SDS011;59925;52.136;5.420;2024-03-08T12:38:17;14.95;;;9.48;;
72060;SDS011;59925;52.136;5.420;2024-03-08T12:40:43;17.00;;;10.05;;
72060;SDS011;59925;52.136;5.420;2024-03-08T12:43:10;15.63;;;9.52;;
72060;SDS011;59925;52.136;5.420;2024-03-08T12:45:38;17.73;;;9.60;;
72060;SDS011;59925;52.136;5.420;2024-03-08T12:48:04;16.23;;;10.50;;
72060;SDS011;59925;52.136;5.420;2024-03-08T12:50:40;15.32;;;9.52;;
72060;SDS011;59925;52.136;5.420;2024-03-08T12:53:10;15.82;;;9.65;;
72060;SDS011;59925;52.136;5.420;2024-03-08T12:55:36;15.48;;;9.70;;
72060;SDS011;59925;52.136;5.420;2024-03-08T12:58:03;15.60;;;9.85;;
72060;SDS011;59925;52.136;5.420;2024-03-08T13:00:33;14.77;;;10.00;;
72060;SDS011;59925;52.136;5.420;2024-03-08T13:03:09;17.10;;;9.45;;
72060;SDS011;59925;52.136;5.420;2024-03-08T13:05:37;18.50;;;9.95;;
72060;SDS011;59925;52.136;5.420;2024-03-08T13:08:06;15.82;;;10.30;;
72060;SDS011;59925;52.136;5.420;2024-03-08T13:10:40;16.77;;;9.93;;
72060;SDS011;59925;52.136;5.420;2024-03-08T13:13:10;13.87;;;9.40;;
72060;SDS011;59925;52.136;5.420;2024-03-08T13:15:43;15.90;;;9.68;;
72060;SDS011;59925;52.136;5.420;2024-03-08T13:18:10;16.02;;;9.20;;
72060;SDS011;59925;52.136;5.420;2024-03-08T13:20:37;15.32;;;9.35;;
72060;SDS011;59925;52.136;5.420;2024-03-08T13:23:13;17.95;;;10.77;;
72060;SDS011;59925;52.136;5.420;2024-03-08T13:25:39;19.03;;;10.70;;
72060;SDS011;59925;52.136;5.420;2024-03-08T13:28:06;16.25;;;10.25;;
72060;SDS011;59925;52.136;5.420;2024-03-08T13:30:33;15.40;;;9.93;;
72060;SDS011;59925;52.136;5.420;2024-03-08T13:32:59;16.75;;;10.05;;
72060;SDS011;59925;52.136;5.420;2024-03-08T13:35:26;16.88;;;10.50;;
72060;SDS011;59925;52.136;5.420;2024-03-08T13:37:54;17.23;;;10.13;;
72060;SDS011;59925;52.136;5.420;2024-03-08T13:40:21;15.57;;;9.77;;
72060;SDS011;59925;52.136;5.420;2024-03-08T13:42:48;15.75;;;9.32;;
72060;SDS011;59925;52.136;5.420;2024-03-08T13:45:15;14.27;;;9.77;;
72060;SDS011;59925;52.136;5.420;2024-03-08T13:47:49;17.92;;;10.25;;
72060;SDS011;59925;52.136;5.420;2024-03-08T13:50:17;16.43;;;10.03;;
72060;SDS011;59925;52.136;5.420;2024-03-08T13:52:48;16.35;;;10.18;;
72060;SDS011;59925;52.136;5.420;2024-03-08T13:55:21;15.98;;;8.93;;
72060;SDS011;59925;52.136;5.420;2024-03-08T13:57:49;18.30;;;10.52;;
72060;SDS011;59925;52.136;5.420;2024-03-08T14:00:17;15.80;;;9.70;;
72060;SDS011;59925;52.136;5.420;2024-03-08T14:02:44;15.60;;;10.10;;
72060;SDS011;59925;52.136;5.420;2024-03-08T14:05:10;19.85;;;11.30;;
72060;SDS011;59925;52.136;5.420;2024-03-08T14:07:39;15.82;;;10.23;;
72060;SDS011;59925;52.136;5.420;2024-03-08T14:10:06;15.82;;;10.18;;
72060;SDS011;59925;52.136;5.420;2024-03-08T14:12:33;17.38;;;10.32;;
72060;SDS011;59925;52.136;5.420;2024-03-08T14:15:01;16.37;;;9.07;;
72060;SDS011;59925;52.136;5.420;2024-03-08T14:17:27;18.02;;;10.82;;
72060;SDS011;59925;52.136;5.420;2024-03-08T14:19:57;16.20;;;9.95;;
72060;SDS011;59925;52.136;5.420;2024-03-08T14:22:25;18.13;;;10.80;;
72060;SDS011;59925;52.136;5.420;2024-03-08T14:24:52;18.42;;;10.07;;
72060;SDS011;59925;52.136;5.420;2024-03-08T14:27:18;17.17;;;10.50;;
72060;SDS011;59925;52.136;5.420;2024-03-08T14:29:45;18.85;;;10.35;;
72060;SDS011;59925;52.136;5.420;2024-03-08T14:32:12;17.05;;;10.32;;
72060;SDS011;59925;52.136;5.420;2024-03-08T14:34:39;17.58;;;9.88;;
72060;SDS011;59925;52.136;5.420;2024-03-08T14:37:05;15.20;;;9.07;;